Tuesday, January 23, 2018, 7:16 AM EST
Back to Local

KPOU, Poughkeepsie Dutchess Cty

Location: Wappingers Falls, NY, United States Lat: 41.633
Local Time: 7:16 AM EST (12:16 GMT) Lon: -73.883
Time Zone: US/Eastern Elev: 167 ft

Show me the last for .
Show Decoded

2018-01-23 06:53 METAR KPOU 231153Z 08005KT 1 3/4SM +RA BR BKN004 OVC010 07/06 A2977 RMK AO2
                 RAB13 PRESFR SLP079 P0012 60012 70012 T00670061 10067 20033 56029 =
2018-01-23 06:48 METAR KPOU 231148Z AUTO 15004KT 2SM +RA BR BKN004 OVC010 07/06 A2979 RMK AO2
                 RAB13 P0009 =
2018-01-23 06:30 METAR KPOU 231130Z AUTO 15004KT 3SM -RA BR OVC003 06/06 A2980 RMK AO2 RAB13
                 P0001 T00610056 =
2018-01-23 06:12 METAR KPOU 231112Z AUTO 00000KT 2 1/2SM BR OVC004 04/03 A2980 RMK AO2 PRESFR
                 T00440033 =
2018-01-23 05:53 METAR KPOU 231053Z AUTO 00000KT 4SM BR OVC005 04/03 A2983 RMK AO2 RAB34E44
                 SLP098 P0000 T00390033 =
2018-01-23 04:53 METAR KPOU 230953Z AUTO 13005KT 6SM BR OVC006 04/03 A2986 RMK AO2 SLP108
                 T00440033 =
2018-01-23 04:15 METAR KPOU 230915Z AUTO 00000KT 9SM OVC008 06/04 A2989 RMK AO2 CIG 006V011
                 T00560039 =
2018-01-23 03:53 METAR KPOU 230853Z AUTO 11005KT 5SM BR OVC010 04/02 A2990 RMK AO2 PRESFR SLP124
                 T00390022 58034 =
2018-01-23 02:53 METAR KPOU 230753Z AUTO 00000KT 5SM BR OVC011 04/03 A2995 RMK AO2 SLP140
                 T00390028 =
2018-01-23 02:29 METAR KPOU 230729Z AUTO 00000KT 5SM BR OVC013 03/02 A2996 RMK AO2 T00330022 =
2018-01-23 01:53 METAR KPOU 230653Z AUTO 00000KT 7SM OVC017 04/03 A2998 RMK AO2 SLP148 T00440028
                 =
2018-01-23 01:14 METAR KPOU 230614Z AUTO 13008KT 6SM BR SCT007 OVC017 04/03 A2999 RMK AO2
                 T00440028 =
2018-01-23 00:53 METAR KPOU 230553Z AUTO 12003KT 5SM BR OVC007 04/03 A3000 RMK AO2 PRESFR SLP158
                 T00390028 10044 20022 58033 =
2018-01-22 23:53 METAR KPOU 230453Z AUTO 15004KT 4SM BR OVC007 04/03 A3006 RMK AO2 SLP177
                 T00390028 400440011 =
2018-01-22 22:53 METAR KPOU 230353Z AUTO 00000KT 3SM BR OVC006 03/02 A3006 RMK AO2 SLP178
                 T00330022 =
2018-01-22 21:53 METAR KPOU 230253Z AUTO 00000KT 4SM BR OVC007 03/02 A3010 RMK AO2 SLP191
                 T00330022 57016 =
2018-01-22 20:53 METAR KPOU 230153Z AUTO 00000KT 4SM BR OVC007 03/01 A3011 RMK AO2 SLP195
                 T00280011 =
2018-01-22 19:53 METAR KPOU 230053Z 12005KT 4SM BR OVC009 04/03 A3013 RMK AO2 SLP202 T00440028 =
2018-01-22 18:58 METAR KPOU 222358Z 14004KT 5SM BR OVC009 04/02 A3015 RMK AO2 T00440022 =
2018-01-22 18:53 METAR KPOU 222353Z 14005KT 5SM BR OVC010 04/02 A3015 RMK AO2 SLP207 T00440022
                 10044 20028 53004 =
2018-01-22 17:53 METAR KPOU 222253Z 00000KT 6SM BR OVC013 03/01 A3015 RMK AO2 SLP206 T00280011 =
2018-01-22 16:53 METAR KPOU 222153Z 01003KT 5SM HZ OVC012 04/01 A3013 RMK AO2 SLP201 T00390011 =
2018-01-22 15:53 METAR KPOU 222053Z 31003KT 5SM HZ OVC011 04/01 A3013 RMK AO2 SLP202 T00390011
                 56008 =
2018-01-22 14:56 METAR KPOU 221956Z 00000KT 5SM HZ OVC013 04/01 A3014 RMK AO2 T00390011 =
2018-01-22 14:53 METAR KPOU 221953Z 00000KT 5SM HZ OVC015 04/01 A3014 RMK AO2 SLP204 T00390011 =
2018-01-22 13:53 METAR KPOU 221853Z 00000KT 5SM HZ OVC015 04/01 A3015 RMK AO2 SLP208 T00440011 =
2018-01-22 12:53 METAR KPOU 221753Z 29003KT 5SM HZ OVC015 04/02 A3016 RMK AO2 SLP210 T00440017
                 10044 20011 58017 =
2018-01-22 11:53 METAR KPOU 221653Z 31003KT 5SM BR OVC015 04/02 A3018 RMK AO2 SLP219 T00390017 =
2018-01-22 10:53 METAR KPOU 221553Z 00000KT 4SM BR OVC015 03/01 A3021 RMK AO2 SLP227 T00330011 =
2018-01-22 09:53 METAR KPOU 221453Z 00000KT 4SM BR OVC018 03/01 A3021 RMK AO2 SLP227 T00280011
                 51016 =
2018-01-22 08:53 METAR KPOU 221353Z 00000KT 2SM BR OVC019 02/01 A3020 RMK AO2 SLP224 T00170011 =
2018-01-22 07:53 METAR KPOU 221253Z 00000KT 2SM BR OVC019 02/01 A3019 RMK AO2 SLP220 T00170006 =

Support USWX by starting your Amazon purchase here.